Time;durP1;ratioP1;P1;durP2;ratioP2;P2;SDS_P1;SDS_P2;PMS_P1;PMS_P2;Temp;Humidity;BMP_temperature;BMP_pressure;BME280_temperature;BME280_humidity;BME280_pressure;Samples;Min_cycle;Max_cycle;Signal;HPM_P1;HPM_P2
2022/03/13 00:01:02;;;;;;;5.10;4.57;;;;;;;;;;5050803;28;20496;-73
2022/03/13 00:03:32;;;;;;;5.70;5.13;;;;;;;;;;5047951;28;20563;-73
2022/03/13 00:06:03;;;;;;;5.40;4.90;;;;;;;;;;5016002;28;20214;-72
2022/03/13 00:08:34;;;;;;;5.57;4.77;;;;;;;;;;5055084;28;20198;-72
2022/03/13 00:11:19;;;;;;;4.77;4.37;;;;;;;;;;5052369;28;20202;-73
2022/03/13 00:13:53;;;;;;;5.27;4.73;;;;;;;;;;5032587;28;20526;-73
2022/03/13 00:16:22;;;;;;;5.43;4.63;;;;;;;;;;5032934;28;20675;-72
2022/03/13 00:18:59;;;;;;;4.70;4.30;;;;;;;;;;5040488;28;20531;-73
2022/03/13 00:21:30;;;;;;;5.17;4.67;;;;;;;;;;5049126;28;20822;-73
2022/03/13 00:24:00;;;;;;;4.53;4.13;;;;;;;;;;5061534;28;20201;-71
2022/03/13 00:26:34;;;;;;;4.57;3.90;;;;;;;;;;5053071;28;20182;-76
2022/03/13 00:29:04;;;;;;;5.37;4.87;;;;;;;;;;5058800;28;20236;-73
2022/03/13 00:31:37;;;;;;;5.10;4.60;;;;;;;;;;5049264;28;20315;-72
2022/03/13 00:34:12;;;;;;;4.20;3.80;;;;;;;;;;5041148;28;20233;-74
2022/03/13 00:36:42;;;;;;;4.90;4.40;;;;;;;;;;5048616;28;20194;-72
2022/03/13 00:39:11;;;;;;;5.17;4.23;;;;;;;;;;5050521;28;20284;-72
2022/03/13 00:41:43;;;;;;;4.80;4.40;;;;;;;;;;5036972;28;20217;-73
2022/03/13 00:44:15;;;;;;;4.97;4.50;;;;;;;;;;5076920;28;20198;-74
2022/03/13 00:46:48;;;;;;;4.03;3.63;;;;;;;;;;5061723;28;20198;-72
2022/03/13 00:49:24;;;;;;;4.30;3.90;;;;;;;;;;5047313;28;20194;-73
2022/03/13 00:52:09;;;;;;;4.47;4.07;;;;;;;;;;5029330;28;20210;-72
2022/03/13 00:54:41;;;;;;;4.57;4.17;;;;;;;;;;5044926;28;20194;-73
2022/03/13 00:57:11;;;;;;;4.13;3.73;;;;;;;;;;5050745;28;20569;-74
2022/03/13 01:00:14;;;;;;;3.73;3.37;;;;;;;;;;5040896;28;20245;-72
2022/03/13 01:02:45;;;;;;;4.73;4.00;;;;;;;;;;5044133;28;20675;-72
2022/03/13 01:05:22;;;;;;;3.63;3.33;;;;;;;;;;5050398;28;20523;-73
2022/03/13 01:07:59;;;;;;;4.13;3.73;;;;;;;;;;5037574;28;20200;-73
2022/03/13 01:10:27;;;;;;;3.53;3.23;;;;;;;;;;5041992;28;20233;-73
2022/03/13 01:12:55;;;;;;;3.73;3.30;;;;;;;;;;5050122;28;20217;-73
2022/03/13 01:15:28;;;;;;;3.30;3.00;;;;;;;;;;5029147;28;20221;-73
2022/03/13 01:17:58;;;;;;;3.60;3.30;;;;;;;;;;5046341;28;20265;-72
2022/03/13 01:20:30;;;;;;;3.63;3.33;;;;;;;;;;5048960;28;20694;-72
2022/03/13 01:23:00;;;;;;;3.57;3.27;;;;;;;;;;5038315;28;20203;-73
2022/03/13 01:25:29;;;;;;;3.67;3.37;;;;;;;;;;5058809;28;20213;-73
2022/03/13 01:28:00;;;;;;;3.50;3.20;;;;;;;;;;5051298;28;20299;-73
2022/03/13 01:30:33;;;;;;;3.67;3.37;;;;;;;;;;5054347;28;20321;-73
2022/03/13 01:33:03;;;;;;;4.13;3.13;;;;;;;;;;5041372;28;20639;-72
2022/03/13 01:35:33;;;;;;;3.57;3.27;;;;;;;;;;5049619;28;20198;-72
2022/03/13 01:38:03;;;;;;;2.97;2.77;;;;;;;;;;5036747;28;20202;-73
2022/03/13 01:40:34;;;;;;;3.40;3.07;;;;;;;;;;5029864;28;20249;-72
2022/03/13 01:43:05;;;;;;;3.93;3.23;;;;;;;;;;5049672;28;20198;-73
2022/03/13 01:45:38;;;;;;;3.33;3.03;;;;;;;;;;5051259;28;20268;-73
2022/03/13 01:48:10;;;;;;;3.10;2.70;;;;;;;;;;5054084;28;20221;-72
2022/03/13 01:50:49;;;;;;;3.20;2.90;;;;;;;;;;5045060;28;20219;-74
2022/03/13 01:53:32;;;;;;;3.10;2.80;;;;;;;;;;5049275;28;20218;-73
2022/03/13 01:56:11;;;;;;;3.20;2.90;;;;;;;;;;5072669;28;20197;-73
2022/03/13 01:58:42;;;;;;;3.10;2.80;;;;;;;;;;5018241;28;20191;-73
2022/03/13 02:01:14;;;;;;;3.20;2.90;;;;;;;;;;5049389;28;20222;-73
2022/03/13 02:03:48;;;;;;;3.60;2.80;;;;;;;;;;5048185;28;20210;-73
2022/03/13 02:06:18;;;;;;;3.23;2.93;;;;;;;;;;5035799;28;20248;-73
2022/03/13 02:08:52;;;;;;;3.13;2.80;;;;;;;;;;5032676;28;20544;-73
2022/03/13 02:11:40;;;;;;;2.80;2.60;;;;;;;;;;5070967;28;20194;-73
2022/03/13 02:14:11;;;;;;;3.43;3.13;;;;;;;;;;5039671;28;20232;-73
2022/03/13 02:16:41;;;;;;;3.10;2.80;;;;;;;;;;5040733;28;20243;-73
2022/03/13 02:19:13;;;;;;;2.70;2.50;;;;;;;;;;5048655;28;20194;-72
2022/03/13 02:21:48;;;;;;;2.83;2.60;;;;;;;;;;5048152;28;20225;-73
2022/03/13 02:24:21;;;;;;;3.03;2.73;;;;;;;;;;5045452;28;20238;-73
2022/03/13 02:27:06;;;;;;;2.90;2.63;;;;;;;;;;5049406;28;20560;-74
2022/03/13 02:29:38;;;;;;;2.93;2.73;;;;;;;;;;5037775;28;20359;-73
2022/03/13 02:32:09;;;;;;;3.20;2.90;;;;;;;;;;5065143;28;20247;-73
2022/03/13 02:34:41;;;;;;;2.80;2.60;;;;;;;;;;5080332;28;20216;-73
2022/03/13 02:37:39;;;;;;;2.87;2.60;;;;;;;;;;5062314;28;20308;-73
2022/03/13 02:40:26;;;;;;;3.23;2.93;;;;;;;;;;5061642;28;20235;-74
2022/03/13 02:42:58;;;;;;;2.87;2.50;;;;;;;;;;5067436;28;20189;-73
2022/03/13 02:45:37;;;;;;;2.80;2.60;;;;;;;;;;5083374;28;20208;-74
2022/03/13 02:48:11;;;;;;;3.10;2.43;;;;;;;;;;5059161;28;20186;-73
2022/03/13 02:50:52;;;;;;;3.27;2.97;;;;;;;;;;5032217;28;20205;-73
2022/03/13 02:53:25;;;;;;;3.33;3.00;;;;;;;;;;5072713;28;20197;-73
2022/03/13 02:55:56;;;;;;;2.87;2.63;;;;;;;;;;5064537;28;20193;-73
2022/03/13 02:58:29;;;;;;;3.37;3.07;;;;;;;;;;5059510;28;20198;-73
2022/03/13 03:01:04;;;;;;;3.50;3.20;;;;;;;;;;5052282;28;20614;-73
2022/03/13 03:03:34;;;;;;;2.87;2.67;;;;;;;;;;5060778;28;20227;-73
2022/03/13 03:06:04;;;;;;;4.80;3.30;;;;;;;;;;5072951;28;20253;-73
2022/03/13 03:08:37;;;;;;;2.80;2.60;;;;;;;;;;5078013;28;20193;-73
2022/03/13 03:11:10;;;;;;;3.37;2.60;;;;;;;;;;5080320;28;20722;-72
2022/03/13 03:13:38;;;;;;;3.73;3.00;;;;;;;;;;5069806;28;20198;-72
2022/03/13 03:16:12;;;;;;;3.63;3.07;;;;;;;;;;5064743;28;20215;-73
2022/03/13 03:19:00;;;;;;;3.70;3.40;;;;;;;;;;5072721;28;20190;-73
2022/03/13 03:21:33;;;;;;;3.33;3.03;;;;;;;;;;5046297;28;20214;-73
2022/03/13 03:24:10;;;;;;;3.17;2.87;;;;;;;;;;5049421;28;20186;-73
2022/03/13 03:26:41;;;;;;;3.10;2.70;;;;;;;;;;5051254;28;20235;-72
2022/03/13 03:29:13;;;;;;;2.90;2.60;;;;;;;;;;5091317;28;20203;-73
2022/03/13 03:31:48;;;;;;;3.00;2.80;;;;;;;;;;5085807;28;20233;-73
2022/03/13 03:34:35;;;;;;;3.23;2.70;;;;;;;;;;5036043;28;20231;-72
2022/03/13 03:37:06;;;;;;;2.80;2.60;;;;;;;;;;5072584;28;20716;-73
2022/03/13 03:39:37;;;;;;;3.20;2.90;;;;;;;;;;5064550;28;20206;-73
2022/03/13 03:42:07;;;;;;;3.40;3.07;;;;;;;;;;5041756;28;20224;-73
2022/03/13 03:44:37;;;;;;;3.40;3.10;;;;;;;;;;5066128;28;20190;-73
2022/03/13 03:47:12;;;;;;;4.00;3.13;;;;;;;;;;5057681;28;20209;-73
2022/03/13 03:49:43;;;;;;;3.90;3.40;;;;;;;;;;5081882;28;20200;-73
2022/03/13 03:52:16;;;;;;;3.63;3.33;;;;;;;;;;5066569;28;20298;-73
2022/03/13 03:54:48;;;;;;;3.60;3.30;;;;;;;;;;5078381;28;20198;-73
2022/03/13 03:57:19;;;;;;;3.40;3.10;;;;;;;;;;5066971;28;20557;-73
2022/03/13 03:59:51;;;;;;;4.20;3.10;;;;;;;;;;5069808;28;20197;-72
2022/03/13 04:02:24;;;;;;;3.27;2.97;;;;;;;;;;5057943;28;20666;-73
2022/03/13 04:04:54;;;;;;;3.60;3.30;;;;;;;;;;5053032;28;20213;-73
2022/03/13 04:07:25;;;;;;;3.50;3.20;;;;;;;;;;5069043;28;20205;-72
2022/03/13 04:09:57;;;;;;;3.47;3.17;;;;;;;;;;5084706;28;20193;-73
2022/03/13 04:12:25;;;;;;;3.47;3.17;;;;;;;;;;5053180;28;20201;-73
2022/03/13 04:15:00;;;;;;;4.97;3.70;;;;;;;;;;5067411;28;20224;-73
2022/03/13 04:17:35;;;;;;;3.73;3.43;;;;;;;;;;5070318;28;20209;-73
2022/03/13 04:20:07;;;;;;;3.87;3.40;;;;;;;;;;5077223;28;20193;-72
2022/03/13 04:22:36;;;;;;;3.60;3.30;;;;;;;;;;5045287;28;20233;-72
2022/03/13 04:25:06;;;;;;;4.17;3.37;;;;;;;;;;5063036;28;20201;-72
2022/03/13 04:27:40;;;;;;;3.90;3.60;;;;;;;;;;5050842;28;20288;-72
2022/03/13 04:30:09;;;;;;;3.97;3.50;;;;;;;;;;5068582;28;20623;-72
2022/03/13 04:32:40;;;;;;;5.03;3.90;;;;;;;;;;5056817;28;20225;-72
2022/03/13 04:35:08;;;;;;;4.50;4.10;;;;;;;;;;5054912;28;20197;-72
2022/03/13 04:37:42;;;;;;;5.40;4.00;;;;;;;;;;5068023;28;20212;-72
2022/03/13 04:40:24;;;;;;;4.30;3.90;;;;;;;;;;5062334;28;20233;-72
2022/03/13 04:43:05;;;;;;;4.37;3.97;;;;;;;;;;5054323;28;20210;-72
2022/03/13 04:45:37;;;;;;;4.33;3.93;;;;;;;;;;5063532;28;20201;-73
2022/03/13 04:48:09;;;;;;;4.00;3.60;;;;;;;;;;5060934;28;20193;-72
2022/03/13 04:50:38;;;;;;;4.40;4.00;;;;;;;;;;5051628;28;20281;-73
2022/03/13 04:53:11;;;;;;;4.87;4.20;;;;;;;;;;5069957;28;20646;-73
2022/03/13 04:55:52;;;;;;;4.47;3.80;;;;;;;;;;5073248;28;20213;-73
2022/03/13 04:58:24;;;;;;;5.00;4.50;;;;;;;;;;5068863;28;20197;-73
2022/03/13 05:00:56;;;;;;;4.57;4.13;;;;;;;;;;5070463;28;20202;-73
2022/03/13 05:03:32;;;;;;;4.40;4.00;;;;;;;;;;5077851;28;20233;-73
2022/03/13 05:06:07;;;;;;;4.07;3.67;;;;;;;;;;5057840;28;20193;-72
2022/03/13 05:08:55;;;;;;;4.20;3.80;;;;;;;;;;5065129;28;20202;-73
2022/03/13 05:11:23;;;;;;;4.80;4.30;;;;;;;;;;5069308;28;20194;-74
2022/03/13 05:13:55;;;;;;;4.80;4.40;;;;;;;;;;5075964;28;20916;-73
2022/03/13 05:16:25;;;;;;;4.60;4.20;;;;;;;;;;5071765;28;20209;-73
2022/03/13 05:19:08;;;;;;;4.37;3.97;;;;;;;;;;5070081;28;20213;-72
2022/03/13 05:21:40;;;;;;;4.30;3.90;;;;;;;;;;5057806;28;20213;-73
2022/03/13 05:24:12;;;;;;;5.90;4.30;;;;;;;;;;5067286;28;20294;-73
2022/03/13 05:26:45;;;;;;;5.07;4.50;;;;;;;;;;5062414;28;20209;-72
2022/03/13 05:29:17;;;;;;;5.43;4.40;;;;;;;;;;5070389;28;20208;-73
2022/03/13 05:31:50;;;;;;;4.63;4.23;;;;;;;;;;5067447;28;20307;-74
2022/03/13 05:34:21;;;;;;;4.33;3.93;;;;;;;;;;5059478;28;20228;-72
2022/03/13 05:36:53;;;;;;;4.63;4.23;;;;;;;;;;5068882;28;20206;-72
2022/03/13 05:39:23;;;;;;;4.50;4.10;;;;;;;;;;5068128;28;20218;-73
2022/03/13 05:41:56;;;;;;;4.53;4.13;;;;;;;;;;5078492;28;20271;-73
2022/03/13 05:44:36;;;;;;;4.83;4.30;;;;;;;;;;5068473;28;20614;-73
2022/03/13 05:47:08;;;;;;;4.70;4.30;;;;;;;;;;5078577;28;20189;-73
2022/03/13 05:49:44;;;;;;;4.37;3.97;;;;;;;;;;5069281;28;20200;-74
2022/03/13 05:52:21;;;;;;;4.87;4.10;;;;;;;;;;5068774;28;20260;-75
2022/03/13 05:54:51;;;;;;;5.60;3.87;;;;;;;;;;5051052;28;20213;-74
2022/03/13 05:57:21;;;;;;;5.10;4.60;;;;;;;;;;5063916;28;20217;-74
2022/03/13 05:59:52;;;;;;;4.50;4.10;;;;;;;;;;5079767;28;20719;-73
2022/03/13 06:02:22;;;;;;;4.53;4.13;;;;;;;;;;5071920;28;20717;-73
2022/03/13 06:04:56;;;;;;;4.67;4.20;;;;;;;;;;5068475;28;20521;-73
2022/03/13 06:07:25;;;;;;;4.00;3.70;;;;;;;;;;5077437;28;20186;-74
2022/03/13 06:09:56;;;;;;;5.10;4.60;;;;;;;;;;5067679;28;20202;-74
2022/03/13 06:12:28;;;;;;;4.67;4.03;;;;;;;;;;5093375;28;20209;-73
2022/03/13 06:14:59;;;;;;;3.90;3.50;;;;;;;;;;5059459;28;20205;-73
2022/03/13 06:17:44;;;;;;;4.73;3.87;;;;;;;;;;5058050;28;20197;-74
2022/03/13 06:23:43;;;;;;;4.03;3.63;;;;;;;;;;5065060;28;20231;-74
2022/03/13 06:26:17;;;;;;;4.77;4.27;;;;;;;;;;5079650;28;20198;-74
2022/03/13 06:28:49;;;;;;;4.63;3.83;;;;;;;;;;5068674;28;20273;-74
2022/03/13 06:31:24;;;;;;;4.70;4.13;;;;;;;;;;5053021;28;20283;-74
2022/03/13 06:33:57;;;;;;;5.10;3.83;;;;;;;;;;5058072;28;20223;-74
2022/03/13 06:36:31;;;;;;;6.03;4.30;;;;;;;;;;5055779;28;20198;-75
2022/03/13 06:39:14;;;;;;;4.17;3.63;;;;;;;;;;5066777;28;20286;-74
2022/03/13 06:41:47;;;;;;;5.07;3.50;;;;;;;;;;5047164;28;20237;-75
2022/03/13 06:44:18;;;;;;;4.00;3.70;;;;;;;;;;5050282;28;20206;-75
2022/03/13 06:46:50;;;;;;;4.90;4.50;;;;;;;;;;5047739;28;20200;-73
2022/03/13 06:49:21;;;;;;;6.57;3.87;;;;;;;;;;5045514;28;20201;-74
2022/03/13 06:51:54;;;;;;;3.80;3.50;;;;;;;;;;5047709;28;20206;-73
2022/03/13 06:54:27;;;;;;;4.07;3.63;;;;;;;;;;5027340;28;20211;-75
2022/03/13 06:56:56;;;;;;;4.70;4.20;;;;;;;;;;5049731;28;20764;-73
2022/03/13 06:59:25;;;;;;;5.13;3.87;;;;;;;;;;5010645;28;20636;-73
2022/03/13 07:01:55;;;;;;;3.67;3.37;;;;;;;;;;5029814;28;20242;-75
2022/03/13 07:04:30;;;;;;;5.27;4.40;;;;;;;;;;5047513;28;20683;-75
2022/03/13 07:07:03;;;;;;;4.03;3.60;;;;;;;;;;5051641;28;20189;-74
2022/03/13 07:09:32;;;;;;;4.20;3.80;;;;;;;;;;5060791;28;20201;-73
2022/03/13 07:12:01;;;;;;;4.73;4.33;;;;;;;;;;5031278;28;20186;-74
2022/03/13 07:14:30;;;;;;;4.07;3.67;;;;;;;;;;5052368;28;20217;-73
2022/03/13 07:17:04;;;;;;;4.20;3.80;;;;;;;;;;5057725;28;20670;-74
2022/03/13 07:19:33;;;;;;;4.90;3.70;;;;;;;;;;5058062;28;20206;-75
2022/03/13 07:22:02;;;;;;;4.50;3.80;;;;;;;;;;5058137;28;20214;-74
2022/03/13 07:24:33;;;;;;;4.30;3.90;;;;;;;;;;5052378;28;20279;-75
2022/03/13 07:27:05;;;;;;;4.73;4.27;;;;;;;;;;5037981;28;20192;-75
2022/03/13 07:29:36;;;;;;;4.50;4.10;;;;;;;;;;5034630;28;20201;-73
2022/03/13 07:32:04;;;;;;;5.07;3.67;;;;;;;;;;5061966;28;20287;-71
2022/03/13 07:34:35;;;;;;;4.50;3.90;;;;;;;;;;5069217;28;20204;-72
2022/03/13 07:37:10;;;;;;;4.97;3.93;;;;;;;;;;5063811;28;20224;-72
2022/03/13 07:39:39;;;;;;;3.90;3.60;;;;;;;;;;5052418;28;20190;-73
2022/03/13 07:42:12;;;;;;;4.10;3.80;;;;;;;;;;5067876;28;20225;-75
2022/03/13 07:44:41;;;;;;;4.27;3.87;;;;;;;;;;5044391;28;20198;-72
2022/03/13 07:47:13;;;;;;;3.67;3.37;;;;;;;;;;5064128;28;20196;-72
2022/03/13 07:49:46;;;;;;;4.70;4.30;;;;;;;;;;5064494;28;20220;-72
2022/03/13 07:52:16;;;;;;;5.63;3.57;;;;;;;;;;5061220;28;20186;-73
2022/03/13 07:54:45;;;;;;;6.50;4.20;;;;;;;;;;5063335;28;20206;-73
2022/03/13 07:57:13;;;;;;;4.47;4.07;;;;;;;;;;5049566;28;20202;-74
2022/03/13 07:59:42;;;;;;;4.57;4.10;;;;;;;;;;5064535;28;20198;-75
2022/03/13 08:02:12;;;;;;;7.33;4.37;;;;;;;;;;5062428;28;20225;-74
2022/03/13 08:04:43;;;;;;;4.80;3.73;;;;;;;;;;5058968;28;20198;-72
2022/03/13 08:07:13;;;;;;;5.50;3.83;;;;;;;;;;5065818;28;20197;-75
2022/03/13 08:09:42;;;;;;;4.20;3.80;;;;;;;;;;5065380;28;20190;-74
2022/03/13 08:12:15;;;;;;;4.37;3.97;;;;;;;;;;5064135;28;20213;-72
2022/03/13 08:14:46;;;;;;;4.77;4.10;;;;;;;;;;5064852;28;20196;-71
2022/03/13 08:17:20;;;;;;;17.97;7.57;;;;;;;;;;5071051;28;20226;-71
2022/03/13 08:19:54;;;;;;;16.77;7.83;;;;;;;;;;5063827;28;20194;-72
2022/03/13 08:22:23;;;;;;;15.50;7.60;;;;;;;;;;5065889;28;20213;-75
2022/03/13 08:24:52;;;;;;;23.97;8.77;;;;;;;;;;5066582;28;20185;-74
2022/03/13 08:27:24;;;;;;;18.20;8.50;;;;;;;;;;5051957;28;20243;-74
2022/03/13 08:29:56;;;;;;;19.90;8.53;;;;;;;;;;5044084;28;20210;-74
2022/03/13 08:32:29;;;;;;;15.60;8.47;;;;;;;;;;5064358;28;20248;-72
2022/03/13 08:35:01;;;;;;;17.13;8.20;;;;;;;;;;5062932;28;20211;-73
2022/03/13 08:37:35;;;;;;;19.50;8.13;;;;;;;;;;5066297;28;20531;-73
2022/03/13 08:40:27;;;;;;;16.63;7.97;;;;;;;;;;5050047;28;20197;-71
2022/03/13 08:42:57;;;;;;;14.87;7.73;;;;;;;;;;5054470;28;20587;-74
2022/03/13 08:45:27;;;;;;;16.30;7.47;;;;;;;;;;5063129;28;20197;-75
2022/03/13 08:48:00;;;;;;;15.97;7.90;;;;;;;;;;5058579;28;20248;-74
2022/03/13 08:50:32;;;;;;;13.80;7.40;;;;;;;;;;5066260;28;20178;-74
2022/03/13 08:53:02;;;;;;;15.40;7.57;;;;;;;;;;5059420;28;20240;-73
2022/03/13 08:55:36;;;;;;;13.13;7.10;;;;;;;;;;5066071;28;20239;-74
2022/03/13 08:58:08;;;;;;;14.20;7.73;;;;;;;;;;5063716;28;20543;-74
2022/03/13 09:00:45;;;;;;;13.37;7.47;;;;;;;;;;5039213;28;20618;-75
2022/03/13 09:03:21;;;;;;;13.07;7.50;;;;;;;;;;5060666;28;20218;-73
2022/03/13 09:05:51;;;;;;;12.50;7.13;;;;;;;;;;5057085;28;20206;-74
2022/03/13 09:08:23;;;;;;;13.63;7.53;;;;;;;;;;5060930;28;20197;-75
2022/03/13 09:10:56;;;;;;;10.50;7.13;;;;;;;;;;5060444;28;20224;-75
2022/03/13 09:13:28;;;;;;;14.43;7.00;;;;;;;;;;5038691;28;20190;-72
2022/03/13 09:16:00;;;;;;;11.93;7.20;;;;;;;;;;5046856;28;20201;-71
2022/03/13 09:18:31;;;;;;;13.63;6.93;;;;;;;;;;5055126;28;20233;-70
2022/03/13 09:21:03;;;;;;;14.33;6.60;;;;;;;;;;5072107;28;20220;-73
2022/03/13 09:23:32;;;;;;;13.03;6.73;;;;;;;;;;5065871;28;20226;-73
2022/03/13 09:26:07;;;;;;;14.27;6.97;;;;;;;;;;5068913;28;20217;-70
2022/03/13 09:28:43;;;;;;;13.93;6.67;;;;;;;;;;5074083;28;20201;-72
2022/03/13 09:31:18;;;;;;;10.10;6.60;;;;;;;;;;5065798;28;20202;-71
2022/03/13 09:33:59;;;;;;;10.87;7.10;;;;;;;;;;5061951;28;20202;-71
2022/03/13 09:36:28;;;;;;;11.10;6.17;;;;;;;;;;5077795;28;20256;-73
2022/03/13 09:39:00;;;;;;;9.83;6.00;;;;;;;;;;5064439;28;20215;-73
2022/03/13 09:41:31;;;;;;;10.63;6.37;;;;;;;;;;5067826;28;20576;-72
2022/03/13 09:44:02;;;;;;;8.43;6.40;;;;;;;;;;5070522;28;20217;-72
2022/03/13 09:46:35;;;;;;;10.53;6.20;;;;;;;;;;5068324;28;20193;-73
2022/03/13 09:49:06;;;;;;;8.70;6.03;;;;;;;;;;5090830;28;20617;-73
2022/03/13 09:51:40;;;;;;;7.93;5.80;;;;;;;;;;5045830;28;20259;-70
2022/03/13 09:54:17;;;;;;;9.10;6.17;;;;;;;;;;5068986;28;20552;-70
2022/03/13 09:56:53;;;;;;;8.53;5.87;;;;;;;;;;5053798;28;20210;-73
2022/03/13 09:59:25;;;;;;;8.50;6.40;;;;;;;;;;5064037;28;20895;-73
2022/03/13 10:02:02;;;;;;;8.70;6.37;;;;;;;;;;5065858;28;20205;-72
2022/03/13 10:04:38;;;;;;;9.23;5.57;;;;;;;;;;5063718;28;20337;-72
2022/03/13 10:07:16;;;;;;;9.03;6.20;;;;;;;;;;5052016;28;20220;-73
2022/03/13 10:09:47;;;;;;;9.93;5.93;;;;;;;;;;5067294;28;20520;-73
2022/03/13 10:12:20;;;;;;;7.97;5.50;;;;;;;;;;5064185;28;20272;-72
2022/03/13 10:15:06;;;;;;;7.07;5.93;;;;;;;;;;5076338;28;20216;-72
2022/03/13 10:17:48;;;;;;;7.23;6.40;;;;;;;;;;5070078;28;20313;-72
2022/03/13 10:20:25;;;;;;;7.67;5.57;;;;;;;;;;5054311;28;20243;-72
2022/03/13 10:23:28;;;;;;;7.67;6.30;;;;;;;;;;5070911;28;20236;-72
2022/03/13 10:26:05;;;;;;;7.90;5.63;;;;;;;;;;5059468;28;20243;-70
2022/03/13 10:28:40;;;;;;;7.20;6.13;;;;;;;;;;5078204;28;20224;-70
2022/03/13 10:31:17;;;;;;;8.33;5.73;;;;;;;;;;5038130;28;20197;-73
2022/03/13 10:33:56;;;;;;;6.67;5.17;;;;;;;;;;5071593;28;20201;-73
2022/03/13 10:36:45;;;;;;;5.83;5.23;;;;;;;;;;5073410;28;20638;-73
2022/03/13 10:39:28;;;;;;;6.10;5.23;;;;;;;;;;5062147;28;20267;-73
2022/03/13 10:42:04;;;;;;;6.77;6.03;;;;;;;;;;5065020;28;20216;-72
2022/03/13 10:44:35;;;;;;;7.40;5.87;;;;;;;;;;5075621;28;20224;-71
2022/03/13 10:47:12;;;;;;;24.67;7.70;;;;;;;;;;5067368;28;20209;-73
2022/03/13 10:49:53;;;;;;;159.40;32.70;;;;;;;;;;5060875;28;20635;-73
2022/03/13 10:52:36;;;;;;;121.97;27.80;;;;;;;;;;5063147;28;20231;-73
2022/03/13 10:55:17;;;;;;;79.57;19.80;;;;;;;;;;5063595;28;20194;-72
2022/03/13 10:57:55;;;;;;;69.00;18.53;;;;;;;;;;5064573;28;20201;-72
2022/03/13 11:00:25;;;;;;;71.63;17.03;;;;;;;;;;5028062;28;20228;-74
2022/03/13 11:03:10;;;;;;;60.87;15.13;;;;;;;;;;5069942;28;20206;-70
2022/03/13 11:05:41;;;;;;;43.80;12.13;;;;;;;;;;5029006;28;20201;-72
2022/03/13 11:08:15;;;;;;;31.57;11.07;;;;;;;;;;5051113;28;20220;-73
2022/03/13 11:10:46;;;;;;;27.50;10.07;;;;;;;;;;5069409;28;20198;-72
2022/03/13 11:13:21;;;;;;;26.00;9.80;;;;;;;;;;5062673;28;20194;-72
2022/03/13 11:15:56;;;;;;;25.00;9.77;;;;;;;;;;5067624;28;20185;-72
2022/03/13 11:18:37;;;;;;;22.07;8.73;;;;;;;;;;5084318;28;20559;-72
2022/03/13 11:21:10;;;;;;;18.97;8.33;;;;;;;;;;5054222;28;20218;-73
2022/03/13 11:23:42;;;;;;;18.00;6.90;;;;;;;;;;5080398;28;20238;-72
2022/03/13 11:26:15;;;;;;;14.53;7.07;;;;;;;;;;5065245;28;20309;-72
2022/03/13 11:28:45;;;;;;;11.87;6.97;;;;;;;;;;5054084;28;20206;-72
2022/03/13 11:31:31;;;;;;;11.97;5.93;;;;;;;;;;5059385;28;20181;-73
2022/03/13 11:34:15;;;;;;;11.20;6.23;;;;;;;;;;5067132;28;20181;-71
2022/03/13 11:36:53;;;;;;;11.13;5.97;;;;;;;;;;5062588;28;20211;-73
2022/03/13 11:39:31;;;;;;;11.97;6.20;;;;;;;;;;5068251;28;20237;-73
2022/03/13 11:42:06;;;;;;;9.67;6.03;;;;;;;;;;5067550;28;20209;-71
2022/03/13 11:44:43;;;;;;;7.63;6.07;;;;;;;;;;5067303;28;20233;-72
2022/03/13 11:47:24;;;;;;;7.23;6.23;;;;;;;;;;5074738;28;20190;-72
2022/03/13 11:50:01;;;;;;;7.97;6.07;;;;;;;;;;5062816;28;20186;-72
2022/03/13 11:52:37;;;;;;;10.00;6.43;;;;;;;;;;5054546;28;20245;-72
2022/03/13 11:55:13;;;;;;;9.17;6.33;;;;;;;;;;5055510;28;20211;-72
2022/03/13 11:57:50;;;;;;;8.67;5.93;;;;;;;;;;5050291;28;20642;-74
2022/03/13 12:00:30;;;;;;;5.30;4.80;;;;;;;;;;5044758;28;20519;-73
2022/03/13 12:03:11;;;;;;;6.20;5.60;;;;;;;;;;5063111;28;20247;-73
2022/03/13 12:05:50;;;;;;;7.83;4.77;;;;;;;;;;5051486;28;20193;-72
2022/03/13 12:08:50;;;;;;;7.30;5.17;;;;;;;;;;5064928;28;20724;-72
2022/03/13 12:11:39;;;;;;;5.87;4.93;;;;;;;;;;5062778;28;20201;-74
2022/03/13 12:14:14;;;;;;;5.63;4.70;;;;;;;;;;5059028;28;20972;-74
2022/03/13 12:17:08;;;;;;;5.00;4.50;;;;;;;;;;5069912;28;20225;-73
2022/03/13 12:19:40;;;;;;;5.27;4.77;;;;;;;;;;5074901;28;20209;-75
2022/03/13 12:22:10;;;;;;;4.87;4.37;;;;;;;;;;5064702;28;20202;-74
2022/03/13 12:24:44;;;;;;;4.70;4.23;;;;;;;;;;5071331;28;20205;-73
2022/03/13 12:27:11;;;;;;;5.20;3.87;;;;;;;;;;5069837;28;20589;-73
2022/03/13 12:29:44;;;;;;;5.00;4.23;;;;;;;;;;5059847;28;20669;-73
2022/03/13 12:32:16;;;;;;;5.13;4.63;;;;;;;;;;5055237;28;20329;-73
2022/03/13 12:34:44;;;;;;;5.50;4.10;;;;;;;;;;5066076;28;20201;-72
2022/03/13 12:37:15;;;;;;;5.87;4.50;;;;;;;;;;5074968;28;20231;-73
2022/03/13 12:39:51;;;;;;;7.00;4.30;;;;;;;;;;5066425;28;20202;-73
2022/03/13 12:42:39;;;;;;;6.40;4.40;;;;;;;;;;5050051;28;20305;-74
2022/03/13 12:45:15;;;;;;;4.37;3.97;;;;;;;;;;5067409;28;20213;-73
2022/03/13 12:47:51;;;;;;;5.53;4.83;;;;;;;;;;5073732;28;20212;-72
2022/03/13 12:50:29;;;;;;;4.80;4.30;;;;;;;;;;5067337;28;20198;-73
2022/03/13 12:53:02;;;;;;;4.93;4.43;;;;;;;;;;5051164;28;20647;-74
2022/03/13 12:55:33;;;;;;;5.40;4.90;;;;;;;;;;5082613;28;20201;-72
2022/03/13 12:58:05;;;;;;;4.57;4.17;;;;;;;;;;5070846;28;20400;-71
2022/03/13 13:00:41;;;;;;;4.70;4.20;;;;;;;;;;5074141;28;20687;-76
2022/03/13 13:03:23;;;;;;;5.13;4.40;;;;;;;;;;5070542;28;20305;-73
2022/03/13 13:05:55;;;;;;;4.80;4.30;;;;;;;;;;5072864;28;20201;-72
2022/03/13 13:08:36;;;;;;;4.37;3.97;;;;;;;;;;5052288;28;20219;-71
2022/03/13 13:11:06;;;;;;;6.33;4.87;;;;;;;;;;5052937;28;20635;-73
2022/03/13 13:13:37;;;;;;;7.13;5.13;;;;;;;;;;5078406;28;20237;-73
2022/03/13 13:16:05;;;;;;;4.73;4.33;;;;;;;;;;5066739;28;20205;-71
2022/03/13 13:18:39;;;;;;;5.17;4.67;;;;;;;;;;5069360;28;20221;-71
2022/03/13 13:21:10;;;;;;;5.13;4.63;;;;;;;;;;5070242;28;20259;-72
2022/03/13 13:23:42;;;;;;;5.37;4.87;;;;;;;;;;5069962;28;20286;-73
2022/03/13 13:26:13;;;;;;;5.10;4.60;;;;;;;;;;5075212;28;20212;-72
2022/03/13 13:29:04;;;;;;;5.87;5.13;;;;;;;;;;5061331;28;20785;-74
2022/03/13 13:31:33;;;;;;;5.67;5.13;;;;;;;;;;5053816;28;20192;-73
2022/03/13 13:34:15;;;;;;;5.13;4.63;;;;;;;;;;5069232;28;20792;-73
2022/03/13 13:37:07;;;;;;;4.83;4.40;;;;;;;;;;5077733;28;20233;-71
2022/03/13 13:39:37;;;;;;;5.17;4.67;;;;;;;;;;5059254;28;20197;-72
2022/03/13 13:42:07;;;;;;;4.90;4.40;;;;;;;;;;5070258;28;20278;-72
2022/03/13 13:44:37;;;;;;;5.13;4.10;;;;;;;;;;5068864;28;20232;-72
2022/03/13 13:47:09;;;;;;;7.40;4.90;;;;;;;;;;5072790;28;20272;-75
2022/03/13 13:49:43;;;;;;;4.80;4.40;;;;;;;;;;5069858;28;20197;-72
2022/03/13 13:52:14;;;;;;;5.80;5.20;;;;;;;;;;5063062;28;20197;-73
2022/03/13 13:54:41;;;;;;;8.23;4.73;;;;;;;;;;5064272;28;20972;-73
2022/03/13 13:57:25;;;;;;;5.33;4.83;;;;;;;;;;5073683;28;20818;-74
2022/03/13 13:59:54;;;;;;;5.60;5.00;;;;;;;;;;5058335;28;20292;-73
2022/03/13 14:02:27;;;;;;;5.10;4.60;;;;;;;;;;5066691;28;20232;-74
2022/03/13 14:04:59;;;;;;;5.57;5.00;;;;;;;;;;5064962;28;20229;-73
2022/03/13 14:07:31;;;;;;;5.30;4.80;;;;;;;;;;5076447;28;20204;-71
2022/03/13 14:10:08;;;;;;;4.93;4.43;;;;;;;;;;5067958;28;20245;-71
2022/03/13 14:12:42;;;;;;;5.43;4.50;;;;;;;;;;5041892;28;20209;-71
2022/03/13 14:15:11;;;;;;;4.87;4.43;;;;;;;;;;5064684;28;20201;-73
2022/03/13 14:17:41;;;;;;;5.33;4.83;;;;;;;;;;5063608;28;20213;-74
2022/03/13 14:20:09;;;;;;;5.17;4.40;;;;;;;;;;5043214;28;20190;-73
2022/03/13 14:22:41;;;;;;;5.00;4.03;;;;;;;;;;5062304;28;20644;-74
2022/03/13 14:25:15;;;;;;;4.73;4.33;;;;;;;;;;5065025;28;20584;-72
2022/03/13 14:27:47;;;;;;;4.33;3.53;;;;;;;;;;5052907;28;20221;-72
2022/03/13 14:30:21;;;;;;;5.40;4.33;;;;;;;;;;5044027;28;20236;-72
2022/03/13 14:32:52;;;;;;;4.07;3.77;;;;;;;;;;5060727;28;20242;-71
2022/03/13 14:35:22;;;;;;;3.90;3.50;;;;;;;;;;5067105;28;20740;-72
2022/03/13 14:37:51;;;;;;;3.77;3.47;;;;;;;;;;5051261;28;20209;-68
2022/03/13 14:40:39;;;;;;;3.73;3.23;;;;;;;;;;5060792;28;20225;-73
2022/03/13 14:43:09;;;;;;;6.30;4.57;;;;;;;;;;5049685;28;20222;-73
2022/03/13 14:45:42;;;;;;;7.80;4.60;;;;;;;;;;5065843;28;20225;-72
2022/03/13 14:48:13;;;;;;;9.90;4.63;;;;;;;;;;5059233;28;20189;-73
2022/03/13 14:50:49;;;;;;;9.67;4.67;;;;;;;;;;5064728;28;20772;-73
2022/03/13 14:53:24;;;;;;;9.80;4.70;;;;;;;;;;5065153;28;20290;-73
2022/03/13 14:55:57;;;;;;;11.43;5.13;;;;;;;;;;5062108;28;20582;-70
2022/03/13 14:58:32;;;;;;;9.67;4.40;;;;;;;;;;5049387;28;20704;-70
2022/03/13 15:01:02;;;;;;;13.80;4.70;;;;;;;;;;5062856;28;20267;-71
2022/03/13 15:03:34;;;;;;;8.20;4.20;;;;;;;;;;5046404;28;20204;-71
2022/03/13 15:06:04;;;;;;;9.17;4.17;;;;;;;;;;5053370;28;20789;-70
2022/03/13 15:08:34;;;;;;;6.80;3.73;;;;;;;;;;5065640;28;20544;-71
2022/03/13 15:11:09;;;;;;;6.30;3.83;;;;;;;;;;5054980;28;20213;-73
2022/03/13 15:13:40;;;;;;;7.57;3.30;;;;;;;;;;5056040;28;20197;-72
2022/03/13 15:16:14;;;;;;;6.13;3.53;;;;;;;;;;5043989;28;20194;-71
2022/03/13 15:18:53;;;;;;;8.80;3.80;;;;;;;;;;5059081;28;20317;-70
2022/03/13 15:21:26;;;;;;;7.20;3.87;;;;;;;;;;5049763;28;20693;-70
2022/03/13 15:23:54;;;;;;;7.20;3.23;;;;;;;;;;5030649;28;20198;-70